Time;durP1;ratioP1;P1;durP2;ratioP2;P2;SDS_P1;SDS_P2;PMS_P1;PMS_P2;Temp;Humidity;BMP_temperature;BMP_pressure;BME280_temperature;BME280_humidity;BME280_pressure;Samples;Min_cycle;Max_cycle;Signal;HPM_P1;HPM_P2
2022/08/25 09:05:55;;;;;;;37.53;18.60;;;;;;;43.58;28.99;101478.91;5163003;27;20357;-71
2022/08/25 09:08:21;;;;;;;47.40;19.23;;;;;;;43.69;28.61;101493.78;5132425;27;20426;-71
2022/08/25 09:10:55;;;;;;;26.23;16.30;;;;;;;43.75;28.96;101486.22;5132933;27;20773;-71
2022/08/25 09:13:24;;;;;;;33.03;17.60;;;;;;;43.22;29.20;101496.63;5112402;27;20448;-72
2022/08/25 09:19:35;;;;;;;26.80;14.97;;;;;;;43.41;28.87;101493.50;5151125;27;20852;-73
2022/08/25 09:22:10;;;;;;;34.40;16.90;;;;;;;43.12;29.61;101497.78;5109449;27;20856;-71
2022/08/25 09:24:54;;;;;;;35.33;20.27;;;;;;;43.61;29.14;101487.25;5132180;27;20544;-72
2022/08/25 09:27:38;;;;;;;40.17;18.37;;;;;;;43.48;29.32;101493.78;5149411;27;20810;-71
2022/08/25 09:30:15;;;;;;;32.00;17.77;;;;;;;43.42;29.39;101495.91;5119318;28;20419;-70
2022/08/25 09:32:45;;;;;;;29.70;16.90;;;;;;;43.80;28.76;101492.31;5093171;28;20430;-70
2022/08/25 09:35:25;;;;;;;31.30;15.77;;;;;;;43.87;28.87;101489.03;5127576;27;20422;-71
2022/08/25 09:37:59;;;;;;;37.27;16.20;;;;;;;43.98;28.62;101491.03;5122778;28;20517;-71
2022/08/25 09:40:29;;;;;;;35.13;16.83;;;;;;;43.84;28.65;101485.06;5118800;27;20761;-70
2022/08/25 09:42:58;;;;;;;35.47;18.60;;;;;;;43.58;28.85;101479.72;5132259;27;20575;-68
2022/08/25 09:45:40;;;;;;;31.10;17.30;;;;;;;43.66;28.88;101478.88;5150417;27;20823;-71
2022/08/25 09:48:27;;;;;;;33.30;18.20;;;;;;;43.77;28.97;101479.28;5111848;27;20790;-70
2022/08/25 09:50:58;;;;;;;34.90;20.07;;;;;;;43.65;28.62;101468.28;5111897;28;20407;-69
2022/08/25 09:53:25;;;;;;;40.03;18.40;;;;;;;43.68;28.51;101467.59;5111291;27;20479;-70
2022/08/25 09:55:58;;;;;;;27.43;16.13;;;;;;;43.50;29.41;101466.94;5110294;28;20427;-68
2022/08/25 09:58:24;;;;;;;20.73;14.07;;;;;;;43.51;28.47;101465.00;5129683;28;20423;-68
2022/08/25 10:01:18;;;;;;;33.63;16.20;;;;;;;43.60;28.85;101463.00;5118193;28;20416;-71
2022/08/25 10:04:00;;;;;;;34.53;15.03;;;;;;;43.75;28.56;101459.69;5096720;28;20478;-73
2022/08/25 10:06:33;;;;;;;20.27;13.07;;;;;;;43.88;28.51;101457.84;5101813;28;20462;-71
2022/08/25 10:09:05;;;;;;;28.73;15.47;;;;;;;43.71;28.70;101450.56;5110936;28;20468;-70
2022/08/25 10:11:51;;;;;;;43.37;20.20;;;;;;;43.65;28.86;101454.63;5110939;28;20431;-71
2022/08/25 10:14:37;;;;;;;24.87;14.27;;;;;;;43.61;28.66;101453.69;5107514;28;20930;-71
2022/08/25 10:17:25;;;;;;;39.20;19.13;;;;;;;44.04;28.10;101458.84;5115683;28;20432;-74
2022/08/25 10:19:53;;;;;;;44.30;19.47;;;;;;;43.51;28.85;101454.06;5080891;28;20501;-70
2022/08/25 10:22:31;;;;;;;31.93;16.53;;;;;;;43.33;28.76;101462.31;5097168;28;20455;-70
2022/08/25 10:25:01;;;;;;;37.33;17.00;;;;;;;43.59;28.53;101447.75;5115396;28;20459;-71
2022/08/25 10:27:27;;;;;;;37.63;17.70;;;;;;;43.84;28.45;101446.78;5097115;28;20526;-69
2022/08/25 10:30:19;;;;;;;31.70;15.33;;;;;;;43.86;28.23;101451.91;5115570;28;20497;-69
2022/08/25 10:32:54;;;;;;;37.17;19.37;;;;;;;44.09;28.00;101447.69;5111777;28;20448;-70
2022/08/25 10:35:23;;;;;;;37.70;17.00;;;;;;;43.85;28.12;101447.59;5093643;28;21063;-69
2022/08/25 10:38:02;;;;;;;32.03;18.77;;;;;;;44.24;27.71;101446.28;5109620;28;20480;-69
2022/08/25 10:40:56;;;;;;;43.60;21.93;;;;;;;43.63;28.66;101444.00;5092200;28;20421;-69
2022/08/25 10:43:46;;;;;;;37.67;20.50;;;;;;;43.71;28.78;101437.69;5077061;28;20412;-69
2022/08/25 10:46:19;;;;;;;41.10;19.93;;;;;;;43.95;27.94;101447.16;5078440;28;20420;-70
2022/08/25 10:48:55;;;;;;;35.80;17.40;;;;;;;43.85;28.46;101447.59;5084165;28;20828;-70
2022/08/25 10:51:45;;;;;;;38.00;20.63;;;;;;;43.86;28.34;101435.50;5110216;28;21000;-72
2022/08/25 10:54:29;;;;;;;32.50;18.53;;;;;;;43.74;28.15;101438.94;5095007;28;20408;-75
2022/08/25 10:57:06;;;;;;;31.57;19.00;;;;;;;43.69;28.70;101426.28;5112567;28;20466;-72
2022/08/25 10:59:46;;;;;;;41.90;25.13;;;;;;;43.48;28.81;101424.69;5078209;28;20460;-72
2022/08/25 11:02:47;;;;;;;31.40;17.13;;;;;;;43.92;28.57;101415.84;5107354;28;20441;-72
2022/08/25 11:06:05;;;;;;;35.93;19.30;;;;;;;43.90;28.08;101412.66;5093705;28;20479;-72
2022/08/25 11:08:48;;;;;;;41.77;19.90;;;;;;;43.66;28.64;101410.56;5067123;28;20926;-71
2022/08/25 11:11:29;;;;;;;41.50;21.73;;;;;;;44.08;28.10;101417.97;5096048;28;20434;-73
2022/08/25 11:13:58;;;;;;;33.27;17.10;;;;;;;44.06;27.43;101414.75;5095436;28;20419;-74
2022/08/25 11:16:44;;;;;;;30.20;21.10;;;;;;;44.11;28.03;101403.59;5096374;28;20427;-72
2022/08/25 11:19:32;;;;;;;33.40;21.40;;;;;;;43.84;28.17;101403.06;5093816;28;20420;-71
2022/08/25 11:22:20;;;;;;;41.70;22.47;;;;;;;43.68;28.38;101399.31;5089420;28;20428;-71
2022/08/25 11:25:02;;;;;;;42.47;21.10;;;;;;;43.52;28.87;101393.63;5091157;28;20506;-71
2022/08/25 11:27:36;;;;;;;28.40;17.70;;;;;;;43.14;29.17;101396.44;5080738;28;20985;-71
2022/08/25 11:30:09;;;;;;;34.20;18.97;;;;;;;43.78;28.67;101401.66;5082251;28;20960;-71
2022/08/25 11:32:37;;;;;;;28.50;17.40;;;;;;;43.90;28.15;101398.97;5105503;28;20424;-73
2022/08/25 11:35:08;;;;;;;41.53;19.70;;;;;;;43.39;28.80;101394.69;5079689;28;20428;-72
2022/08/25 11:37:43;;;;;;;44.30;17.93;;;;;;;43.51;28.77;101397.50;5076737;28;20439;-73
2022/08/25 11:40:28;;;;;;;38.80;20.20;;;;;;;43.31;29.03;101396.31;5092382;28;20420;-71
2022/08/25 11:43:06;;;;;;;31.70;19.57;;;;;;;43.61;29.01;101386.19;5078149;28;20420;-72
2022/08/25 11:46:17;;;;;;;36.77;18.43;;;;;;;43.06;29.30;101386.38;5092173;28;20463;-73
2022/08/25 11:48:46;;;;;;;35.03;21.00;;;;;;;43.17;29.23;101377.47;5066192;28;20450;-73
2022/08/25 11:51:31;;;;;;;26.57;16.93;;;;;;;43.03;29.32;101367.91;5095501;28;20447;-72
2022/08/25 11:54:15;;;;;;;38.90;19.27;;;;;;;42.73;30.05;101367.88;5095364;28;20502;-69
2022/08/25 11:56:49;;;;;;;33.90;18.17;;;;;;;42.78;29.55;101367.69;5095521;28;20564;-72
2022/08/25 11:59:50;;;;;;;38.83;18.27;;;;;;;43.32;28.62;101361.63;5103666;28;20444;-72
2022/08/25 12:02:43;;;;;;;23.90;17.80;;;;;;;43.52;28.28;101346.38;5104592;28;20504;-71
2022/08/25 12:05:20;;;;;;;23.00;13.17;;;;;;;43.01;27.91;101340.16;5110169;28;20479;-72
2022/08/25 12:07:46;;;;;;;35.87;16.40;;;;;;;43.07;28.58;101338.81;5095099;28;20443;-72
2022/08/25 12:10:24;;;;;;;34.03;16.43;;;;;;;43.74;27.91;101348.78;5113427;28;20412;-72
2022/08/25 12:13:22;;;;;;;28.83;16.90;;;;;;;43.45;28.38;101342.25;5095268;28;20492;-71
2022/08/25 12:15:48;;;;;;;24.93;16.83;;;;;;;43.58;28.12;101339.59;5092040;28;20934;-71
2022/08/25 12:18:22;;;;;;;29.83;15.00;;;;;;;43.64;28.12;101335.50;5091208;28;20420;-73
2022/08/25 12:20:55;;;;;;;35.23;15.30;;;;;;;44.18;27.18;101335.50;5094702;28;20421;-71
2022/08/25 12:23:33;;;;;;;32.60;17.80;;;;;;;43.86;27.61;101329.72;5094800;28;20423;-71
2022/08/25 12:26:08;;;;;;;43.87;17.87;;;;;;;43.68;27.94;101328.25;5094872;28;21078;-70
2022/08/25 12:28:57;;;;;;;26.90;13.60;;;;;;;43.66;28.49;101325.06;5094597;28;20988;-71
2022/08/25 12:31:48;;;;;;;37.93;16.50;;;;;;;43.85;28.71;101325.41;5113128;28;20419;-75
2022/08/25 12:34:41;;;;;;;25.23;16.40;;;;;;;44.09;28.22;101316.47;5094908;28;20423;-72
2022/08/25 12:37:22;;;;;;;31.70;16.27;;;;;;;43.72;28.55;101310.84;5095084;28;20448;-72
2022/08/25 12:40:01;;;;;;;25.17;13.13;;;;;;;43.63;28.21;101301.94;5094391;28;20452;-72
2022/08/25 12:42:38;;;;;;;23.83;13.50;;;;;;;44.04;28.24;101294.78;5113237;28;20420;-74
2022/08/25 12:45:37;;;;;;;34.43;15.33;;;;;;;43.76;28.59;101288.31;5094054;28;20455;-70
2022/08/25 12:48:26;;;;;;;31.93;13.03;;;;;;;44.16;27.81;101283.88;5108982;28;21007;-72
2022/08/25 12:51:23;;;;;;;27.53;14.37;;;;;;;44.35;28.03;101269.69;5067257;28;20439;-72
2022/08/25 12:54:17;;;;;;;23.60;12.67;;;;;;;44.64;27.16;101267.88;5070045;28;20806;-71
2022/08/25 12:56:58;;;;;;;17.33;11.30;;;;;;;44.15;27.43;101270.56;5091607;28;20455;-72
2022/08/25 12:59:38;;;;;;;32.37;11.60;;;;;;;44.00;28.15;101260.28;5112842;28;20412;-70
2022/08/25 13:02:35;;;;;;;34.73;13.10;;;;;;;43.78;28.30;101256.00;5094322;28;20446;-70
2022/08/25 13:05:39;;;;;;;22.00;15.60;;;;;;;44.45;28.02;101247.34;5108121;28;20566;-70
2022/08/25 13:08:14;;;;;;;19.90;13.40;;;;;;;44.83;27.03;101254.38;5094136;28;20411;-70
2022/08/25 13:10:53;;;;;;;19.37;12.43;;;;;;;44.64;27.68;101248.72;5094429;28;20448;-79
2022/08/25 13:13:49;;;;;;;21.03;11.70;;;;;;;44.41;27.68;101229.22;5112699;28;20467;-74
2022/08/25 13:16:22;;;;;;;26.60;12.90;;;;;;;44.36;27.83;101229.44;5087257;28;20804;-73
2022/08/25 13:18:48;;;;;;;18.43;12.20;;;;;;;43.81;28.17;101214.34;5094198;28;20511;-71
2022/08/25 13:21:18;;;;;;;30.37;12.37;;;;;;;44.38;27.82;101205.28;5101441;28;20449;-70
2022/08/25 13:23:56;;;;;;;27.10;12.10;;;;;;;44.52;27.67;101197.53;5097949;28;20424;-73
2022/08/25 13:26:38;;;;;;;30.27;11.77;;;;;;;44.22;28.00;101200.50;5092778;28;20565;-74
2022/08/25 13:29:07;;;;;;;20.43;15.73;;;;;;;44.12;27.74;101194.66;5091899;28;20428;-68
2022/08/25 13:31:37;;;;;;;24.83;11.60;;;;;;;44.22;27.75;101195.03;5097228;28;20415;-70
2022/08/25 13:34:17;;;;;;;19.83;11.80;;;;;;;44.30;27.40;101196.06;5075957;28;20494;-69
2022/08/25 13:39:33;;;;;;;21.77;12.50;;;;;;;44.87;27.15;101175.09;5107843;28;20468;-71
2022/08/25 13:42:01;;;;;;;17.20;12.10;;;;;;;44.96;26.86;101173.84;5077356;28;20420;-73
2022/08/25 13:44:30;;;;;;;23.03;11.97;;;;;;;45.05;26.59;101170.94;5093847;28;20969;-69
2022/08/25 13:47:16;;;;;;;28.50;13.17;;;;;;;45.12;26.67;101160.22;5074028;28;20512;-70
2022/08/25 13:49:46;;;;;;;19.57;12.60;;;;;;;45.03;26.67;101174.03;5091321;28;20450;-70
2022/08/25 13:52:31;;;;;;;19.50;12.67;;;;;;;44.99;26.33;101173.13;5087874;28;20443;-69
2022/08/25 13:55:00;;;;;;;19.80;11.80;;;;;;;44.39;27.33;101171.34;5089113;28;20420;-69
2022/08/25 13:57:29;;;;;;;22.73;13.33;;;;;;;44.67;26.82;101172.19;5097825;28;20427;-69
2022/08/25 14:00:01;;;;;;;30.10;13.27;;;;;;;45.00;26.85;101163.78;5079062;28;20445;-69
2022/08/25 14:02:45;;;;;;;25.23;12.40;;;;;;;45.14;26.37;101160.66;5097833;28;20508;-69
2022/08/25 14:05:13;;;;;;;25.30;13.10;;;;;;;45.45;26.40;101162.66;5112777;28;20636;-70
2022/08/25 14:07:40;;;;;;;24.47;11.90;;;;;;;45.52;26.10;101162.06;5080660;28;20428;-70
2022/08/25 14:10:29;;;;;;;33.90;14.70;;;;;;;45.44;27.05;101161.09;5089002;28;20898;-73
2022/08/25 14:13:28;;;;;;;22.80;11.63;;;;;;;45.32;26.28;101161.13;5097320;28;20423;-71
2022/08/25 14:15:54;;;;;;;15.27;10.43;;;;;;;45.16;26.51;101154.81;5084821;28;20424;-71
2022/08/25 14:18:29;;;;;;;21.53;12.00;;;;;;;45.16;27.20;101157.56;5082275;28;20456;-73
2022/08/25 14:20:56;;;;;;;22.47;10.77;;;;;;;45.12;26.49;101149.25;5079020;28;20435;-71
2022/08/25 14:23:29;;;;;;;23.10;11.40;;;;;;;45.30;26.50;101144.22;5089646;28;20432;-71
2022/08/25 14:25:56;;;;;;;25.90;12.10;;;;;;;45.09;26.95;101144.47;5107153;28;20808;-73
2022/08/25 14:28:30;;;;;;;29.50;10.50;;;;;;;45.25;26.69;101145.31;5095274;28;20443;-72
2022/08/25 14:31:12;;;;;;;31.77;12.40;;;;;;;45.48;26.80;101150.19;5097083;28;20431;-71
2022/08/25 14:33:53;;;;;;;19.20;11.30;;;;;;;45.77;26.00;101136.09;5097197;28;20857;-72
2022/08/25 14:36:19;;;;;;;17.30;11.37;;;;;;;45.74;26.33;101141.50;5096888;28;20532;-71
2022/08/25 14:38:45;;;;;;;36.97;12.63;;;;;;;46.00;26.24;101135.44;5086831;28;20428;-71
2022/08/25 14:41:11;;;;;;;19.90;12.27;;;;;;;46.00;25.56;101141.72;5103440;28;20919;-71
2022/08/25 14:43:37;;;;;;;23.43;11.80;;;;;;;45.88;25.61;101144.56;5096646;28;20873;-70
2022/08/25 14:46:19;;;;;;;29.23;12.30;;;;;;;45.76;26.27;101139.97;5096069;28;20573;-71
2022/08/25 14:48:53;;;;;;;18.73;10.87;;;;;;;45.40;26.29;101134.72;5102925;28;20500;-71
2022/08/25 14:51:19;;;;;;;27.50;10.77;;;;;;;45.29;26.57;101134.41;5094077;28;20449;-70
2022/08/25 14:53:45;;;;;;;27.67;12.77;;;;;;;45.08;26.89;101131.94;5096763;28;20420;-71
2022/08/25 14:56:12;;;;;;;20.20;10.33;;;;;;;44.91;27.20;101124.78;5096243;28;20463;-71
2022/08/25 14:58:39;;;;;;;21.70;11.53;;;;;;;45.02;26.96;101117.69;5093130;28;20456;-71
2022/08/25 15:01:06;;;;;;;25.93;10.60;;;;;;;44.92;27.13;101125.56;5088840;28;20424;-71
2022/08/25 15:03:42;;;;;;;30.43;12.87;;;;;;;44.95;27.30;101128.41;5095928;28;20424;-73
2022/08/25 15:06:12;;;;;;;41.63;13.77;;;;;;;45.02;26.99;101117.69;5096420;28;20436;-71
2022/08/25 15:11:23;;;;;;;22.70;11.87;;;;;;;44.91;27.41;101105.63;5098543;28;20416;-71
2022/08/25 15:13:49;;;;;;;32.80;10.87;;;;;;;44.65;27.71;101108.81;5083190;28;20428;-71
2022/08/25 15:16:29;;;;;;;36.90;15.53;;;;;;;44.81;27.47;101100.63;5096263;28;20444;-71
2022/08/25 15:18:55;;;;;;;22.70;13.83;;;;;;;44.87;27.15;101101.97;5099761;28;20412;-71
2022/08/25 15:21:22;;;;;;;20.13;12.17;;;;;;;45.10;27.35;101107.72;5076978;28;20431;-71
2022/08/25 15:23:48;;;;;;;24.33;12.03;;;;;;;44.97;27.45;101108.94;5105786;28;20444;-74
2022/08/25 15:26:15;;;;;;;25.47;11.17;;;;;;;45.05;26.85;101102.50;5096143;28;20416;-72
2022/08/25 15:28:45;;;;;;;25.43;11.37;;;;;;;44.85;27.35;101096.06;5114351;28;20451;-72
2022/08/25 15:31:11;;;;;;;26.53;12.00;;;;;;;44.72;27.69;101086.31;5079301;28;20440;-72
2022/08/25 15:33:38;;;;;;;33.10;12.57;;;;;;;44.86;27.24;101080.44;5092645;28;20429;-72
2022/08/25 15:36:11;;;;;;;20.97;10.33;;;;;;;44.89;27.33;101077.00;5089462;28;20446;-71
2022/08/25 15:38:45;;;;;;;22.53;12.80;;;;;;;45.07;27.30;101074.78;5114396;28;20431;-72
2022/08/25 15:41:11;;;;;;;25.53;10.70;;;;;;;45.27;26.75;101068.25;5095742;28;20423;-71
2022/08/25 15:43:38;;;;;;;15.90;11.20;;;;;;;45.25;27.10;101073.28;5106893;28;20458;-71
2022/08/25 15:46:05;;;;;;;18.00;10.37;;;;;;;45.12;27.00;101061.63;5080373;28;20978;-71
2022/08/25 15:48:31;;;;;;;26.80;10.70;;;;;;;45.12;27.10;101071.75;5076211;28;20417;-71
2022/08/25 15:50:59;;;;;;;20.03;10.53;;;;;;;45.18;26.93;101065.69;5078684;28;20464;-71
2022/08/25 15:53:28;;;;;;;19.13;10.43;;;;;;;45.09;26.82;101061.53;5095441;28;20428;-72
2022/08/25 15:55:56;;;;;;;21.60;10.37;;;;;;;45.15;26.87;101071.06;5082151;28;20418;-72
2022/08/25 15:58:23;;;;;;;20.40;10.80;;;;;;;45.06;26.89;101056.75;5110272;28;20436;-72
2022/08/25 16:00:49;;;;;;;18.57;11.10;;;;;;;44.98;27.35;101062.03;5078216;28;20926;-70
2022/08/25 16:03:16;;;;;;;24.87;11.17;;;;;;;44.71;27.60;101057.38;5095254;28;20449;-70
2022/08/25 16:05:44;;;;;;;20.33;9.77;;;;;;;44.80;27.11;101062.69;5113224;28;20468;-71
2022/08/25 16:08:10;;;;;;;24.17;12.13;;;;;;;44.89;26.99;101058.66;5095282;28;20454;-78
2022/08/25 16:10:39;;;;;;;16.73;10.27;;;;;;;44.78;27.54;101073.97;5095199;28;20431;-72
2022/08/25 16:13:07;;;;;;;24.43;13.17;;;;;;;45.20;26.49;101074.34;5091411;28;20419;-72
2022/08/25 16:15:34;;;;;;;24.57;14.30;;;;;;;44.87;26.93;101068.34;5093235;28;20955;-72
2022/08/25 16:18:01;;;;;;;22.37;12.97;;;;;;;44.84;26.85;101069.06;5094754;28;20443;-72
2022/08/25 16:20:31;;;;;;;19.97;11.63;;;;;;;44.82;27.29;101058.47;5094837;28;20937;-70
2022/08/25 16:23:03;;;;;;;25.30;11.43;;;;;;;44.80;27.13;101068.94;5094972;28;20458;-72
2022/08/25 16:25:29;;;;;;;35.67;12.37;;;;;;;44.75;27.18;101074.66;5094632;28;20452;-71
2022/08/25 16:27:55;;;;;;;21.03;13.17;;;;;;;44.66;26.88;101063.09;5094806;28;20421;-70
2022/08/25 16:30:21;;;;;;;22.17;11.57;;;;;;;44.87;26.66;101082.03;5091660;28;20455;-70
2022/08/25 16:32:48;;;;;;;21.50;12.03;;;;;;;44.55;27.07;101083.84;5090020;28;20425;-71
2022/08/25 16:35:14;;;;;;;22.17;10.17;;;;;;;44.44;27.40;101078.06;5094202;28;20507;-71
2022/08/25 16:37:40;;;;;;;17.70;10.27;;;;;;;44.59;26.83;101082.06;5094566;28;20440;-71
2022/08/25 16:40:07;;;;;;;20.10;10.53;;;;;;;44.62;26.77;101081.34;5078767;22;20490;-71
2022/08/25 16:42:33;;;;;;;23.23;11.10;;;;;;;44.48;27.12;101077.03;5051198;28;20427;-71
2022/08/25 16:44:59;;;;;;;17.27;10.77;;;;;;;44.70;27.47;101085.88;5050822;28;20891;-71
2022/08/25 16:47:25;;;;;;;19.03;11.67;;;;;;;44.64;27.16;101081.81;5034464;28;20430;-71
2022/08/25 16:49:51;;;;;;;20.43;11.00;;;;;;;44.58;27.11;101077.72;5051268;28;20461;-71
2022/08/25 16:55:14;;;;;;;31.87;15.03;;;;;;;44.12;27.56;101086.09;5052177;28;20409;-70
2022/08/25 16:57:52;;;;;;;23.43;13.90;;;;;;;44.17;27.32;101085.06;5050978;28;20440;-71
2022/08/25 17:00:21;;;;;;;30.37;17.50;;;;;;;44.15;27.76;101084.63;5050783;28;20930;-70
2022/08/25 17:02:50;;;;;;;28.23;13.13;;;;;;;44.19;27.83;101085.53;5050377;28;20438;-71
2022/08/25 17:05:17;;;;;;;30.80;13.37;;;;;;;44.35;27.60;101088.38;5051398;28;20911;-71
2022/08/25 17:08:26;;;;;;;22.73;13.63;;;;;;;44.36;27.27;101100.91;5050572;28;20422;-72
2022/08/25 17:10:29;;;;;;;21.23;10.97;;;;;;;44.29;27.64;101103.41;5051731;28;20419;-71
2022/08/25 17:12:55;;;;;;;19.57;12.40;;;;;;;44.08;28.00;101098.88;5051070;28;20426;-72
2022/08/25 17:15:22;;;;;;;25.37;14.67;;;;;;;44.04;28.11;101106.16;5050672;28;20422;-72
2022/08/25 17:17:48;;;;;;;29.53;15.10;;;;;;;44.03;27.86;101099.09;5050444;28;20816;-71
2022/08/25 17:20:14;;;;;;;25.50;14.73;;;;;;;44.07;27.69;101097.25;5050773;28;20845;-72
2022/08/25 17:22:42;;;;;;;36.30;15.43;;;;;;;43.90;28.23;101100.25;5052152;28;20433;-71
2022/08/25 17:25:09;;;;;;;26.93;14.43;;;;;;;44.06;28.10;101097.63;5050591;28;20994;-72
2022/08/25 17:27:35;;;;;;;27.80;14.80;;;;;;;44.08;27.63;101100.81;5057852;28;20422;-71
2022/08/25 17:30:02;;;;;;;33.23;13.83;;;;;;;43.93;28.33;101083.97;5056069;28;20479;-71
2022/08/25 17:32:28;;;;;;;23.67;12.43;;;;;;;44.12;27.94;101088.03;5038377;28;20430;-70
2022/08/25 17:34:54;;;;;;;30.63;15.93;;;;;;;43.93;28.33;101094.09;5038016;28;20422;-72
2022/08/25 17:37:20;;;;;;;24.67;13.67;;;;;;;43.98;28.46;101091.94;5056062;28;20499;-71
2022/08/25 17:39:46;;;;;;;38.23;15.00;;;;;;;44.09;28.17;101091.47;5054388;28;20894;-70
2022/08/25 17:42:12;;;;;;;26.77;11.70;;;;;;;44.21;27.91;101099.69;5054026;28;20458;-72
2022/08/25 17:44:39;;;;;;;31.90;13.87;;;;;;;44.44;27.71;101092.53;5055785;28;20466;-71
2022/08/25 17:47:05;;;;;;;30.80;14.97;;;;;;;44.38;27.88;101099.38;5055609;28;20477;-71
2022/08/25 17:49:31;;;;;;;26.63;13.87;;;;;;;44.32;27.99;101098.06;5054200;28;20443;-69
2022/08/25 17:51:57;;;;;;;33.87;14.90;;;;;;;44.23;28.12;101103.66;5055126;28;20860;-71
2022/08/25 17:54:23;;;;;;;32.93;17.93;;;;;;;44.07;28.17;101101.94;5046431;28;20797;-72
2022/08/25 17:56:49;;;;;;;32.50;16.20;;;;;;;43.96;28.28;101099.69;5053609;28;20438;-71
2022/08/25 17:59:17;;;;;;;22.93;14.40;;;;;;;44.20;27.81;101093.41;5054421;28;20480;-71
2022/08/25 18:01:43;;;;;;;35.30;18.60;;;;;;;44.20;28.14;101100.84;5053929;28;20821;-71
2022/08/25 18:04:10;;;;;;;30.63;16.77;;;;;;;44.25;28.05;101111.50;5054010;28;20469;-70
2022/08/25 18:06:37;;;;;;;35.03;18.10;;;;;;;44.28;28.06;101110.03;5054949;28;20446;-71
2022/08/25 18:09:05;;;;;;;32.63;17.17;;;;;;;43.99;28.20;101114.59;5055635;28;20429;-71
2022/08/25 18:11:32;;;;;;;40.37;18.73;;;;;;;43.75;28.20;101117.31;5053863;28;20426;-71
2022/08/25 18:13:58;;;;;;;27.27;16.00;;;;;;;43.83;28.57;101111.78;5053999;28;20414;-71
2022/08/25 18:16:25;;;;;;;37.37;15.23;;;;;;;44.03;28.39;101120.97;5047375;28;20422;-71
2022/08/25 18:18:53;;;;;;;28.80;14.57;;;;;;;44.18;27.96;101123.03;5048624;28;20497;-70
2022/08/25 18:21:21;;;;;;;35.27;16.90;;;;;;;43.96;28.42;101129.75;5052140;28;20419;-71
2022/08/25 18:23:47;;;;;;;28.77;17.53;;;;;;;43.81;28.71;101135.09;5050441;28;20446;-71
2022/08/25 18:26:14;;;;;;;30.67;17.27;;;;;;;43.81;28.66;101135.88;5059040;28;20410;-71
2022/08/25 18:28:41;;;;;;;33.73;15.37;;;;;;;43.60;28.71;101132.44;5040096;28;20484;-71
2022/08/25 18:31:08;;;;;;;34.63;16.47;;;;;;;43.80;28.83;101137.03;5046044;28;20448;-70
2022/08/25 18:33:34;;;;;;;30.67;18.00;;;;;;;43.89;28.41;101139.63;5053291;28;21740;-69
2022/08/25 18:36:01;;;;;;;29.70;17.87;;;;;;;43.83;28.79;101139.09;5050021;28;20457;-72
2022/08/25 18:41:12;;;;;;;43.77;15.67;;;;;;;43.31;29.61;101158.75;5053128;28;20943;-70
2022/08/25 18:43:38;;;;;;;31.60;18.43;;;;;;;43.59;29.26;101166.38;5048796;28;20827;-70
2022/08/25 18:46:04;;;;;;;29.10;15.00;;;;;;;43.53;29.50;101162.25;5046609;28;20890;-73
2022/08/25 18:48:31;;;;;;;27.73;14.90;;;;;;;43.36;29.72;101163.19;5050809;28;20451;-73
2022/08/25 18:50:59;;;;;;;26.50;13.90;;;;;;;43.36;29.84;101165.94;5041294;28;20445;-71
2022/08/25 18:53:28;;;;;;;24.70;13.93;;;;;;;43.40;29.86;101164.13;5046569;28;20426;-76
2022/08/25 18:55:54;;;;;;;23.03;15.67;;;;;;;43.43;29.86;101167.00;5052792;28;20424;-77
2022/08/25 18:58:24;;;;;;;28.40;15.03;;;;;;;43.45;29.84;101172.13;5052945;28;20427;-73
2022/08/25 19:00:51;;;;;;;24.70;13.87;;;;;;;43.16;30.11;101175.78;5053387;28;20458;-74
2022/08/25 19:03:20;;;;;;;33.03;15.80;;;;;;;43.08;30.03;101176.63;5052741;28;20454;-73
2022/08/25 19:05:47;;;;;;;35.63;19.60;;;;;;;43.19;30.22;101186.00;5052885;28;20825;-74
2022/08/25 19:08:15;;;;;;;32.57;15.53;;;;;;;43.40;30.08;101183.25;5052575;28;20453;-75
2022/08/25 19:10:45;;;;;;;28.73;13.67;;;;;;;43.39;29.70;101189.84;5036618;28;20468;-74
2022/08/25 19:13:11;;;;;;;26.00;16.10;;;;;;;43.41;29.97;101193.06;5052612;28;20442;-73
2022/08/25 19:15:39;;;;;;;27.67;13.37;;;;;;;43.47;29.91;101186.25;5052910;28;20417;-73
2022/08/25 19:18:05;;;;;;;19.80;11.60;;;;;;;42.94;30.32;101174.16;5054115;28;20453;-74
2022/08/25 19:20:32;;;;;;;24.60;13.07;;;;;;;42.74;30.70;101202.25;5052506;28;20431;-76
2022/08/25 19:22:59;;;;;;;20.97;13.00;;;;;;;42.67;31.08;101193.81;5052570;28;20426;-72
2022/08/25 19:25:26;;;;;;;20.03;10.97;;;;;;;42.78;30.94;101203.97;5051813;28;20458;-72
2022/08/25 19:27:53;;;;;;;23.53;14.43;;;;;;;43.03;30.46;101204.94;5052369;28;20422;-73
2022/08/25 19:30:22;;;;;;;25.93;15.20;;;;;;;42.77;30.58;101212.50;5036106;28;20435;-71
2022/08/25 19:32:50;;;;;;;19.40;12.83;;;;;;;42.76;30.70;101208.97;5050812;28;20440;-72
2022/08/25 19:35:34;;;;;;;32.53;13.27;;;;;;;42.65;31.02;101216.72;5043020;28;20442;-73
2022/08/25 19:38:03;;;;;;;24.00;12.40;;;;;;;42.71;30.99;101211.09;5048726;28;20448;-72
2022/08/25 19:40:32;;;;;;;18.80;13.60;;;;;;;42.79;31.09;101215.69;5034946;28;20467;-72
2022/08/25 19:42:58;;;;;;;27.33;13.30;;;;;;;42.61;31.13;101215.03;5046887;28;21004;-73
2022/08/25 19:45:24;;;;;;;31.47;15.73;;;;;;;42.42;31.42;101218.16;5049868;28;20489;-72
2022/08/25 19:47:51;;;;;;;22.67;13.27;;;;;;;42.32;32.13;101226.69;5049978;28;20510;-73
2022/08/25 19:50:18;;;;;;;24.60;12.90;;;;;;;42.35;31.70;101217.84;5049672;28;20836;-75
2022/08/25 19:52:45;;;;;;;37.13;15.30;;;;;;;42.44;31.82;101228.72;5050248;28;20423;-75
2022/08/25 19:55:12;;;;;;;31.47;16.23;;;;;;;42.56;31.37;101226.09;5051113;28;20418;-74
2022/08/25 19:57:38;;;;;;;28.53;17.47;;;;;;;42.65;31.47;101226.84;5050489;28;20430;-74
2022/08/25 20:00:30;;;;;;;27.40;17.00;;;;;;;42.73;31.20;101227.94;5036696;28;20427;-74
2022/08/25 20:02:59;;;;;;;32.00;15.00;;;;;;;42.44;31.74;101226.78;5040937;28;20502;-73
2022/08/25 20:05:29;;;;;;;23.60;11.37;;;;;;;42.36;32.05;101225.72;5047211;28;20838;-78
2022/08/25 20:07:56;;;;;;;19.77;13.13;;;;;;;42.19;31.84;101227.72;5053279;28;20415;-80
2022/08/25 20:10:24;;;;;;;26.57;13.57;;;;;;;42.04;32.17;101223.56;5049866;28;20423;-73
2022/08/25 20:12:56;;;;;;;21.13;12.03;;;;;;;42.28;31.72;101218.34;5047247;28;20431;-79
2022/08/25 20:15:24;;;;;;;25.47;14.50;;;;;;;42.27;31.86;101227.69;5049649;28;20418;-78
2022/08/25 20:17:52;;;;;;;27.87;12.33;;;;;;;41.93;32.24;101216.88;5051339;28;20805;-79
2022/08/25 20:20:21;;;;;;;29.07;13.73;;;;;;;42.33;31.44;101226.34;5048901;28;20435;-73
2022/08/25 20:22:47;;;;;;;30.33;15.23;;;;;;;42.48;31.28;101235.09;5051102;28;20445;-73
2022/08/25 20:25:20;;;;;;;31.07;16.97;;;;;;;42.42;31.29;101229.06;5036723;28;20463;-74
2022/08/25 20:27:55;;;;;;;25.33;16.07;;;;;;;42.34;31.94;101222.50;5037735;28;20423;-74
2022/08/25 20:30:23;;;;;;;36.00;20.00;;;;;;;42.44;31.62;101226.00;5051119;28;20426;-73
2022/08/25 20:32:50;;;;;;;23.33;14.80;;;;;;;42.58;31.19;101227.38;5048525;28;20488;-74
2022/08/25 20:35:18;;;;;;;27.70;15.47;;;;;;;42.68;31.25;101231.66;5040181;28;20928;-73
2022/08/25 20:37:46;;;;;;;27.00;14.37;;;;;;;42.85;30.85;101231.53;5051221;28;20793;-73
2022/08/25 20:40:16;;;;;;;16.60;11.80;;;;;;;42.86;30.62;101235.88;5049098;28;20999;-74
2022/08/25 20:42:43;;;;;;;22.17;13.43;;;;;;;42.91;30.54;101235.69;5049153;28;20426;-73
2022/08/25 20:45:11;;;;;;;23.30;11.33;;;;;;;42.86;30.68;101233.13;5041144;28;20460;-73
2022/08/25 20:47:37;;;;;;;24.00;12.73;;;;;;;42.93;30.22;101232.59;5048078;28;20435;-73
2022/08/25 20:50:06;;;;;;;36.73;15.43;;;;;;;43.14;30.51;101236.16;5032473;28;20508;-74
2022/08/25 20:52:33;;;;;;;20.50;11.13;;;;;;;42.91;31.23;101234.88;5039540;28;20434;-71
2022/08/25 20:54:59;;;;;;;28.33;12.10;;;;;;;42.88;30.78;101235.53;5049946;28;20870;-72